Time;durP1;ratioP1;P1;durP2;ratioP2;P2;SDS_P1;SDS_P2;PMS_P1;PMS_P2;Temp;Humidity;BMP_temperature;BMP_pressure;BME280_temperature;BME280_humidity;BME280_pressure;Samples;Min_cycle;Max_cycle;Signal;HPM_P1;HPM_P2
2021/03/31 00:04:37;;;;;;;17.65;6.97;;;16.10;75.10;;;;;;11946477;28;20442;-84
2021/03/31 00:10:27;;;;;;;20.48;7.30;;;16.10;75.20;;;;;;11937338;28;20072;-84
2021/03/31 00:16:13;;;;;;;23.65;8.02;;;16.10;75.20;;;;;;11939673;28;20461;-84
2021/03/31 00:22:00;;;;;;;13.45;6.80;;;16.00;75.50;;;;;;11933223;28;20037;-84
2021/03/31 00:27:47;;;;;;;19.73;7.32;;;15.90;75.00;;;;;;11937962;28;20057;-83
2021/03/31 00:33:33;;;;;;;16.05;6.78;;;15.90;74.90;;;;;;11936207;28;20042;-83
2021/03/31 00:39:20;;;;;;;16.42;7.07;;;15.90;75.10;;;;;;11933582;28;20111;-84
2021/03/31 00:45:08;;;;;;;22.20;6.82;;;15.80;75.20;;;;;;11936430;28;20104;-84
2021/03/31 00:50:56;;;;;;;18.90;7.20;;;15.80;75.20;;;;;;11931108;28;20057;-83
2021/03/31 00:56:42;;;;;;;15.45;6.95;;;15.80;75.70;;;;;;11934067;28;20053;-83
2021/03/31 01:02:29;;;;;;;19.02;7.45;;;15.70;75.40;;;;;;11931993;28;20060;-83
2021/03/31 01:08:16;;;;;;;16.00;6.60;;;15.60;75.40;;;;;;11933931;28;20512;-83
2021/03/31 01:14:10;;;;;;;14.82;6.72;;;15.60;75.90;;;;;;11930274;28;20810;-84
2021/03/31 01:20:15;;;;;;;;;;;15.50;75.60;;;;;;11932778;28;20053;-83
2021/03/31 01:26:07;;;;;;;15.43;6.68;;;15.50;75.90;;;;;;11931851;28;20586;-84
2021/03/31 01:32:03;;;;;;;19.25;6.78;;;15.40;75.90;;;;;;11925475;28;20135;-84
2021/03/31 01:37:54;;;;;;;16.02;6.75;;;15.40;76.20;;;;;;11928298;28;20045;-84
2021/03/31 01:43:41;;;;;;;15.52;6.90;;;15.40;75.70;;;;;;11928531;28;20499;-84
2021/03/31 01:49:28;;;;;;;15.20;6.90;;;15.30;75.90;;;;;;11938718;28;20042;-84
2021/03/31 01:55:17;;;;;;;14.02;7.32;;;15.40;76.10;;;;;;11937764;28;20527;-84
2021/03/31 02:01:04;;;;;;;16.50;7.35;;;15.30;76.10;;;;;;11931639;28;20045;-84
2021/03/31 02:06:51;;;;;;;12.25;6.70;;;15.20;76.30;;;;;;11928850;28;20057;-84
2021/03/31 02:12:40;;;;;;;13.85;6.85;;;15.10;76.80;;;;;;11932606;28;20042;-85
2021/03/31 02:18:30;;;;;;;15.25;7.15;;;15.10;76.90;;;;;;11935071;28;20080;-85
2021/03/31 02:24:19;;;;;;;12.30;7.03;;;14.90;77.20;;;;;;11915955;28;20046;-85
2021/03/31 02:30:09;;;;;;;19.70;8.23;;;14.90;76.90;;;;;;11940580;28;20103;-85
2021/03/31 02:35:55;;;;;;;14.50;7.25;;;14.80;76.80;;;;;;11943797;28;20061;-82
2021/03/31 02:41:47;;;;;;;15.45;7.15;;;14.70;77.20;;;;;;11941869;28;20053;-82
2021/03/31 02:47:38;;;;;;;20.85;7.60;;;14.70;77.50;;;;;;11945443;28;20050;-83
2021/03/31 02:53:25;;;;;;;12.13;6.85;;;14.70;77.70;;;;;;11943758;28;20049;-83
2021/03/31 02:59:12;;;;;;;17.52;8.05;;;14.70;77.30;;;;;;11943712;28;20057;-83
2021/03/31 03:05:03;;;;;;;15.00;7.30;;;14.60;77.50;;;;;;11941236;28;20049;-83
2021/03/31 03:10:52;;;;;;;13.50;7.32;;;14.60;77.40;;;;;;11954442;28;20038;-83
2021/03/31 03:16:38;;;;;;;17.58;6.95;;;14.60;77.70;;;;;;11941091;28;20069;-83
2021/03/31 03:22:26;;;;;;;25.23;7.78;;;14.50;77.50;;;;;;11935781;28;20049;-83
2021/03/31 03:28:14;;;;;;;30.50;7.72;;;14.50;78.10;;;;;;11941262;28;20049;-83
2021/03/31 03:34:01;;;;;;;16.10;7.18;;;14.60;78.10;;;;;;11935756;28;20041;-83
2021/03/31 03:39:48;;;;;;;14.25;7.22;;;14.50;78.10;;;;;;11943185;28;20050;-83
2021/03/31 03:45:40;;;;;;;14.70;7.65;;;14.50;78.10;;;;;;11930274;28;20165;-84
2021/03/31 03:51:27;;;;;;;16.95;7.32;;;14.40;78.90;;;;;;11934896;28;20045;-85
2021/03/31 03:57:14;;;;;;;20.98;8.45;;;14.20;79.00;;;;;;11946640;28;20084;-84
2021/03/31 04:03:00;;;;;;;15.18;7.30;;;14.20;79.20;;;;;;11942705;28;20151;-85
2021/03/31 04:09:02;;;;;;;17.55;7.47;;;14.10;79.10;;;;;;11938745;28;20057;-76
2021/03/31 04:14:51;;;;;;;13.68;7.55;;;14.10;78.80;;;;;;11926565;28;20138;-76
2021/03/31 04:20:42;;;;;;;16.83;8.00;;;14.20;79.40;;;;;;11929957;28;20347;-76
2021/03/31 04:26:35;;;;;;;21.13;7.22;;;14.10;79.20;;;;;;11928188;28;20508;-76
2021/03/31 04:32:25;;;;;;;12.97;7.80;;;14.20;79.20;;;;;;11919925;28;20057;-76
2021/03/31 04:38:14;;;;;;;15.52;7.60;;;14.20;79.50;;;;;;11924254;28;20052;-75
2021/03/31 04:44:03;;;;;;;16.45;7.95;;;14.10;79.30;;;;;;11926284;28;20096;-75
2021/03/31 04:49:50;;;;;;;14.80;8.77;;;14.00;79.50;;;;;;11927193;28;20055;-74
2021/03/31 04:55:36;;;;;;;18.10;8.65;;;14.00;79.80;;;;;;11927051;28;20068;-76
2021/03/31 05:01:23;;;;;;;25.83;9.85;;;13.90;79.80;;;;;;11924146;28;20532;-75
2021/03/31 05:07:10;;;;;;;30.55;9.82;;;13.90;79.60;;;;;;11916356;28;20046;-74
2021/03/31 05:12:56;;;;;;;17.20;7.93;;;13.90;79.30;;;;;;11922435;28;20046;-76
2021/03/31 05:18:43;;;;;;;22.05;8.75;;;13.80;79.50;;;;;;11925127;28;20505;-76
2021/03/31 05:24:41;;;;;;;15.65;8.38;;;13.80;79.30;;;;;;11918854;28;20056;-76
2021/03/31 05:30:28;;;;;;;21.77;8.45;;;13.90;79.60;;;;;;11920149;28;20049;-75
2021/03/31 05:36:14;;;;;;;19.75;8.93;;;13.80;79.50;;;;;;11922342;28;20196;-74
2021/03/31 05:42:02;;;;;;;18.60;8.25;;;13.70;80.20;;;;;;11925020;28;20137;-75
2021/03/31 05:48:13;;;;;;;25.55;11.13;;;13.70;80.50;;;;;;11917311;28;20185;-76
2021/03/31 05:54:06;;;;;;;28.25;9.85;;;13.70;79.80;;;;;;11938432;28;20045;-84
2021/03/31 06:00:00;;;;;;;27.45;9.18;;;13.80;80.00;;;;;;11944465;28;20215;-83
2021/03/31 06:05:47;;;;;;;22.90;9.18;;;13.80;79.60;;;;;;11941707;28;20420;-83
2021/03/31 06:11:53;;;;;;;26.13;9.18;;;13.80;79.90;;;;;;11946325;28;20045;-83
2021/03/31 06:17:50;;;;;;;26.75;9.85;;;13.80;79.70;;;;;;11945578;28;20056;-77
2021/03/31 06:29:44;;;;;;;35.63;11.10;;;13.80;80.80;;;;;;11935583;28;20129;-79
2021/03/31 06:35:36;;;;;;;30.58;9.60;;;13.90;81.20;;;;;;11931217;28;20634;-78
2021/03/31 06:41:33;;;;;;;23.23;9.38;;;14.10;81.20;;;;;;11937091;28;20045;-77
2021/03/31 06:47:24;;;;;;;20.73;9.45;;;14.20;81.00;;;;;;11928437;28;20049;-76
2021/03/31 06:53:11;;;;;;;25.33;11.98;;;14.40;81.20;;;;;;11937961;28;20045;-78
2021/03/31 06:59:00;;;;;;;20.98;9.65;;;14.40;81.00;;;;;;11938325;28;20049;-77
2021/03/31 07:05:17;;;;;;;23.10;10.32;;;14.50;81.00;;;;;;11941509;28;20049;-80
2021/03/31 07:11:13;;;;;;;35.17;9.60;;;14.60;81.40;;;;;;11939397;28;20044;-80
2021/03/31 07:17:27;;;;;;;23.40;10.20;;;14.80;81.50;;;;;;11953439;28;20154;-78
2021/03/31 07:29:36;;;;;;;34.72;12.48;;;15.20;81.60;;;;;;11785951;28;20001;-79
2021/03/31 07:35:42;;;;;;;27.35;10.23;;;15.30;81.10;;;;;;11809073;28;20054;-80
2021/03/31 07:48:01;;;;;;;23.92;10.48;;;15.70;81.10;;;;;;11801806;28;20082;-79
2021/03/31 07:53:51;;;;;;;23.08;9.85;;;15.90;81.20;;;;;;11808980;28;20059;-79
2021/03/31 07:59:40;;;;;;;19.80;9.60;;;16.20;81.20;;;;;;11900550;28;20053;-78
2021/03/31 08:05:27;;;;;;;25.35;10.10;;;16.30;80.60;;;;;;11949188;28;20091;-78
2021/03/31 08:11:34;;;;;;;21.50;10.45;;;16.50;79.90;;;;;;11952337;28;20045;-78
2021/03/31 08:17:21;;;;;;;24.23;10.60;;;16.70;79.50;;;;;;11947385;28;20104;-78
2021/03/31 08:23:11;;;;;;;27.33;10.50;;;16.90;79.90;;;;;;11941108;28;20044;-80
2021/03/31 08:28:58;;;;;;;23.00;9.40;;;17.00;79.30;;;;;;11947496;28;20176;-78
2021/03/31 08:34:45;;;;;;;18.55;8.73;;;17.10;78.50;;;;;;11944695;28;20057;-78
2021/03/31 08:40:35;;;;;;;28.30;8.85;;;17.30;78.10;;;;;;11948715;28;20057;-76
2021/03/31 08:46:28;;;;;;;23.35;8.75;;;17.40;77.50;;;;;;11943803;28;20072;-78
2021/03/31 08:52:17;;;;;;;22.00;8.63;;;17.50;77.80;;;;;;11948416;28;20140;-78
2021/03/31 08:58:07;;;;;;;23.27;7.78;;;17.60;77.70;;;;;;11946080;28;20056;-79
2021/03/31 09:04:16;;;;;;;34.08;8.10;;;17.80;77.50;;;;;;11943951;28;20508;-79
2021/03/31 09:10:04;;;;;;;28.95;8.55;;;17.90;77.70;;;;;;11948325;28;20042;-79
2021/03/31 09:15:56;;;;;;;32.05;8.25;;;18.00;78.30;;;;;;11943360;28;20523;-79
2021/03/31 09:21:42;;;;;;;24.33;8.15;;;18.10;78.50;;;;;;11948765;28;20038;-80
2021/03/31 09:27:30;;;;;;;30.50;7.70;;;18.20;78.10;;;;;;11947513;28;20432;-79
2021/03/31 09:33:25;;;;;;;40.30;8.90;;;18.30;77.90;;;;;;11949458;28;20061;-78
2021/03/31 09:39:12;;;;;;;22.73;8.98;;;18.40;78.60;;;;;;11946352;28;20085;-79
2021/03/31 09:45:00;;;;;;;34.55;9.75;;;18.50;77.90;;;;;;11945562;28;20045;-79
2021/03/31 09:50:48;;;;;;;46.65;9.90;;;18.60;78.00;;;;;;11950919;28;20068;-79
2021/03/31 09:56:34;;;;;;;28.60;8.93;;;18.70;78.10;;;;;;11926202;28;20725;-78
2021/03/31 10:02:21;;;;;;;27.13;7.63;;;18.70;77.40;;;;;;11946522;28;20061;-77
2021/03/31 10:08:11;;;;;;;18.50;7.85;;;18.80;76.00;;;;;;11942304;28;20066;-77
2021/03/31 10:14:00;;;;;;;21.27;8.35;;;18.90;76.20;;;;;;11938816;28;20085;-78
2021/03/31 10:19:47;;;;;;;24.17;7.85;;;18.90;77.20;;;;;;11940225;28;20255;-79
2021/03/31 10:25:34;;;;;;;12.68;7.10;;;19.10;77.10;;;;;;11945200;28;20064;-77
2021/03/31 10:31:24;;;;;;;14.43;6.28;;;19.10;75.70;;;;;;11945176;28;20501;-78
2021/03/31 10:37:16;;;;;;;14.77;5.75;;;19.20;75.40;;;;;;11952766;28;20056;-78
2021/03/31 10:49:13;;;;;;;16.55;5.93;;;19.30;72.80;;;;;;11951379;28;20065;-77
2021/03/31 10:54:59;;;;;;;15.07;6.18;;;19.50;71.70;;;;;;11958033;28;20045;-78
2021/03/31 11:00:46;;;;;;;16.73;6.32;;;19.60;71.80;;;;;;11954062;28;20095;-77
2021/03/31 11:06:33;;;;;;;17.17;5.68;;;19.70;70.80;;;;;;11951521;28;20069;-76
2021/03/31 11:12:19;;;;;;;13.85;5.47;;;19.90;70.70;;;;;;11950322;28;20050;-77
2021/03/31 11:18:13;;;;;;;12.27;5.07;;;20.10;69.50;;;;;;11949111;28;20118;-78
2021/03/31 11:30:07;;;;;;;;;;;20.30;61.60;;;;;;11945966;28;19925;-77
2021/03/31 11:35:55;;;;;;;13.38;4.40;;;20.40;62.00;;;;;;11950148;28;19936;-78
2021/03/31 11:41:42;;;;;;;8.25;4.13;;;20.60;63.00;;;;;;11948380;28;20136;-78
2021/03/31 11:47:29;;;;;;;13.95;4.07;;;20.70;60.20;;;;;;11949180;28;20140;-77
2021/03/31 11:53:17;;;;;;;13.52;3.85;;;20.90;60.90;;;;;;11947734;28;20084;-77
2021/03/31 11:59:04;;;;;;;10.90;3.80;;;21.00;60.80;;;;;;11952054;28;20262;-78
2021/03/31 12:04:51;;;;;;;11.18;3.20;;;21.10;60.10;;;;;;11948218;28;20049;-78
2021/03/31 12:10:39;;;;;;;9.60;3.63;;;21.30;58.90;;;;;;11945486;28;20140;-78
2021/03/31 12:16:25;;;;;;;9.32;3.80;;;21.40;57.70;;;;;;11945392;28;20128;-77
2021/03/31 12:22:13;;;;;;;8.27;3.47;;;21.60;57.30;;;;;;11943473;28;20110;-77
2021/03/31 12:28:01;;;;;;;10.93;3.78;;;21.70;56.90;;;;;;11948587;28;20436;-78
2021/03/31 12:33:48;;;;;;;8.13;3.35;;;21.80;55.00;;;;;;11928097;28;20476;-78
2021/03/31 12:39:34;;;;;;;7.78;3.25;;;21.90;54.80;;;;;;11952510;28;20397;-76
2021/03/31 12:45:22;;;;;;;12.57;3.95;;;22.10;54.30;;;;;;11941703;28;20132;-76
2021/03/31 12:51:12;;;;;;;13.05;4.20;;;22.30;56.10;;;;;;11940694;28;20171;-76
2021/03/31 12:56:59;;;;;;;9.75;4.10;;;22.50;56.20;;;;;;11947430;28;20107;-76
2021/03/31 13:02:51;;;;;;;16.30;6.65;;;22.70;56.20;;;;;;11951147;28;20527;-81
2021/03/31 13:08:37;;;;;;;12.63;4.30;;;22.80;55.80;;;;;;11938479;28;20128;-80
2021/03/31 13:26:54;;;;;;;12.15;4.10;;;23.40;55.00;;;;;;11950820;28;20045;-81
2021/03/31 13:32:42;;;;;;;9.02;3.50;;;23.50;55.60;;;;;;11946873;28;20085;-80
2021/03/31 13:38:34;;;;;;;5.88;2.90;;;23.70;53.40;;;;;;11950568;28;20065;-78
2021/03/31 13:44:21;;;;;;;7.35;2.83;;;23.70;47.40;;;;;;11948356;28;20045;-80
2021/03/31 13:50:09;;;;;;;7.63;2.65;;;23.60;47.00;;;;;;11951191;28;20042;-79
2021/03/31 13:55:57;;;;;;;4.75;2.20;;;23.70;46.30;;;;;;11946144;28;20090;-82
2021/03/31 14:01:43;;;;;;;7.03;2.30;;;24.00;44.50;;;;;;11950235;28;20540;-80
2021/03/31 14:07:30;;;;;;;6.10;3.10;;;24.20;42.30;;;;;;11946724;28;20048;-79
2021/03/31 14:13:17;;;;;;;8.68;2.85;;;24.20;44.00;;;;;;11934550;28;20045;-81
2021/03/31 14:19:04;;;;;;;8.15;2.40;;;24.30;44.50;;;;;;11942390;28;20590;-82
2021/03/31 14:24:51;;;;;;;8.90;2.90;;;24.40;43.50;;;;;;11953144;28;20057;-80
2021/03/31 14:30:38;;;;;;;6.50;2.85;;;24.50;41.90;;;;;;11960077;28;20049;-81
2021/03/31 14:36:27;;;;;;;7.47;2.65;;;24.60;41.10;;;;;;11958606;28;20183;-82
2021/03/31 14:42:14;;;;;;;5.53;2.53;;;24.60;42.20;;;;;;11960935;28;20041;-84
2021/03/31 14:48:01;;;;;;;7.10;2.50;;;24.70;41.20;;;;;;11955048;28;20051;-82
2021/03/31 14:59:52;;;;;;;7.32;2.55;;;24.90;42.30;;;;;;11953956;28;20041;-82
2021/03/31 15:05:39;;;;;;;6.43;2.20;;;25.00;41.20;;;;;;11956617;28;20415;-82
2021/03/31 15:11:25;;;;;;;6.53;2.60;;;25.20;41.50;;;;;;11961533;28;20080;-82
2021/03/31 15:17:12;;;;;;;4.63;2.20;;;25.20;40.60;;;;;;11951361;28;20049;-81
2021/03/31 15:23:06;;;;;;;5.15;2.08;;;25.10;37.50;;;;;;11957193;28;20037;-82
2021/03/31 15:28:52;;;;;;;9.13;2.28;;;25.20;36.10;;;;;;11948993;28;20155;-82
2021/03/31 15:34:41;;;;;;;4.65;2.22;;;25.20;35.40;;;;;;11932542;28;20103;-83
2021/03/31 15:40:28;;;;;;;3.67;2.10;;;25.30;36.60;;;;;;11950193;28;20083;-82
2021/03/31 15:46:17;;;;;;;6.05;1.85;;;25.30;36.90;;;;;;11946421;28;20052;-81
2021/03/31 15:52:05;;;;;;;83.68;53.13;;;25.40;37.10;;;;;;11942515;28;20042;-78
2021/03/31 15:57:54;;;;;;;7.68;4.20;;;25.40;38.70;;;;;;11950978;28;20049;-82
2021/03/31 16:03:45;;;;;;;6.10;2.75;;;25.50;38.70;;;;;;11954911;28;20045;-84
2021/03/31 16:09:31;;;;;;;10.00;2.38;;;25.60;38.70;;;;;;11950313;28;20542;-81
2021/03/31 16:15:18;;;;;;;5.40;2.30;;;25.60;38.90;;;;;;11952093;28;20072;-82
2021/03/31 16:21:06;;;;;;;10.20;2.10;;;25.70;39.10;;;;;;11957387;28;20648;-81
2021/03/31 16:26:52;;;;;;;6.72;3.10;;;25.80;39.20;;;;;;11950955;28;20049;-81
2021/03/31 16:32:39;;;;;;;9.73;2.47;;;26.00;40.00;;;;;;11945316;28;20396;-82
2021/03/31 16:38:26;;;;;;;10.68;2.75;;;26.10;40.60;;;;;;11947954;28;20043;-81
2021/03/31 16:44:13;;;;;;;7.95;3.05;;;26.40;39.00;;;;;;11945047;28;20084;-78
2021/03/31 16:50:01;;;;;;;7.22;2.67;;;27.50;39.30;;;;;;11940410;28;20148;-79
2021/03/31 16:55:47;;;;;;;10.77;2.58;;;28.80;35.70;;;;;;11937020;28;20090;-78
2021/03/31 17:01:37;;;;;;;13.25;2.30;;;30.10;35.90;;;;;;11939140;28;20633;-77
2021/03/31 17:07:26;;;;;;;15.18;2.92;;;31.00;34.70;;;;;;11934963;28;20053;-79
2021/03/31 17:13:12;;;;;;;7.50;2.65;;;30.80;35.30;;;;;;11941038;28;20182;-78
2021/03/31 17:19:00;;;;;;;9.43;2.88;;;30.50;38.00;;;;;;11939967;28;20067;-78
2021/03/31 17:24:59;;;;;;;7.05;2.47;;;29.60;39.60;;;;;;11937289;28;20150;-78
2021/03/31 17:30:46;;;;;;;16.17;3.65;;;28.00;41.30;;;;;;11941203;28;20065;-79
2021/03/31 17:36:34;;;;;;;10.63;3.00;;;26.40;46.60;;;;;;11926528;28;20558;-78
2021/03/31 17:42:23;;;;;;;6.50;2.38;;;25.40;47.70;;;;;;11927871;28;20152;-79
2021/03/31 17:48:10;;;;;;;6.32;2.38;;;24.60;48.00;;;;;;11939893;28;20106;-79
2021/03/31 17:53:58;;;;;;;10.05;3.03;;;24.10;49.30;;;;;;11943287;28;20056;-82
2021/03/31 17:59:46;;;;;;;444.35;310.77;;;23.60;51.20;;;;;;11936561;28;20049;-79
2021/03/31 18:05:33;;;;;;;13.50;3.15;;;23.20;52.40;;;;;;11948757;28;20397;-77
2021/03/31 18:11:21;;;;;;;7.72;3.28;;;22.80;53.90;;;;;;11925889;28;20424;-78
2021/03/31 18:17:09;;;;;;;17.30;3.67;;;22.50;54.60;;;;;;11945165;28;20527;-76
2021/03/31 18:22:56;;;;;;;16.35;3.30;;;22.10;55.70;;;;;;11938686;28;20168;-77
2021/03/31 18:28:44;;;;;;;11.65;3.45;;;21.90;56.70;;;;;;11936340;28;20068;-76
2021/03/31 18:34:32;;;;;;;8.25;3.00;;;21.70;56.70;;;;;;11925163;28;20053;-75
2021/03/31 18:46:27;;;;;;;11.27;3.47;;;21.20;56.10;;;;;;11935241;28;20084;-78
2021/03/31 18:52:15;;;;;;;15.97;3.13;;;21.00;58.30;;;;;;11945548;28;20407;-79
2021/03/31 18:58:03;;;;;;;7.25;3.05;;;20.90;57.60;;;;;;11946200;28;20137;-76
2021/03/31 19:03:49;;;;;;;12.63;3.90;;;20.80;58.40;;;;;;11938317;28;20077;-78
2021/03/31 19:15:41;;;;;;;14.20;5.60;;;20.70;59.20;;;;;;11940634;28;20057;-78
2021/03/31 19:21:31;;;;;;;20.80;8.05;;;20.60;60.20;;;;;;11940793;28;20119;-77
2021/03/31 19:27:30;;;;;;;21.60;6.43;;;20.50;61.10;;;;;;11945918;28;20058;-78
2021/03/31 19:33:20;;;;;;;22.15;6.35;;;20.50;61.60;;;;;;11945055;28;20128;-78
2021/03/31 19:39:08;;;;;;;14.88;4.75;;;20.40;61.90;;;;;;11943677;28;20072;-77
2021/03/31 19:44:56;;;;;;;11.13;3.65;;;20.20;62.50;;;;;;11920876;28;20092;-79
2021/03/31 19:50:44;;;;;;;17.10;4.30;;;20.10;63.20;;;;;;11940668;28;20061;-77
2021/03/31 19:56:34;;;;;;;17.92;6.22;;;20.00;63.20;;;;;;11945238;28;20054;-77
2021/03/31 20:02:31;;;;;;;149.07;74.45;;;19.90;63.40;;;;;;11948233;28;20093;-78
2021/03/31 20:08:18;;;;;;;24.50;7.53;;;19.80;64.30;;;;;;11907124;28;20053;-78
2021/03/31 20:14:04;;;;;;;19.65;8.35;;;19.80;65.30;;;;;;11939205;28;20132;-77
2021/03/31 20:19:52;;;;;;;18.13;7.45;;;19.70;65.60;;;;;;11935044;28;20057;-76
2021/03/31 20:25:39;;;;;;;25.92;8.60;;;19.60;66.10;;;;;;11937041;28;20050;-77
2021/03/31 20:31:28;;;;;;;20.50;7.13;;;19.50;67.10;;;;;;11952856;28;20053;-84
2021/03/31 20:37:16;;;;;;;30.45;9.60;;;19.50;66.80;;;;;;11938341;28;20042;-83
2021/03/31 20:43:02;;;;;;;31.52;12.05;;;19.40;66.70;;;;;;11955079;28;20061;-85
2021/03/31 20:48:49;;;;;;;29.50;12.63;;;19.20;66.80;;;;;;11957832;28;20053;-83
2021/03/31 20:54:37;;;;;;;36.92;10.00;;;19.10;66.50;;;;;;11948048;28;20160;-83
2021/03/31 21:00:24;;;;;;;23.15;9.60;;;19.10;67.20;;;;;;11953909;28;20051;-82
2021/03/31 21:06:11;;;;;;;31.90;10.13;;;19.00;67.50;;;;;;11943364;28;20554;-82
2021/03/31 21:12:00;;;;;;;27.05;13.25;;;18.90;67.70;;;;;;11955679;28;20053;-84
2021/03/31 21:17:48;;;;;;;29.42;13.88;;;18.90;68.30;;;;;;11956135;28;20058;-83
2021/03/31 21:23:34;;;;;;;27.58;10.52;;;18.90;68.50;;;;;;11956448;28;20091;-84
2021/03/31 21:29:22;;;;;;;18.95;7.97;;;18.80;68.40;;;;;;11947282;28;20099;-85
2021/03/31 21:35:10;;;;;;;14.70;7.10;;;18.60;68.90;;;;;;11952922;28;20440;-85
2021/03/31 21:40:56;;;;;;;23.70;7.32;;;18.60;69.00;;;;;;11957238;28;20057;-84
2021/03/31 21:46:43;;;;;;;32.15;9.60;;;18.50;69.30;;;;;;11957661;28;20050;-83
2021/03/31 21:52:30;;;;;;;23.65;7.03;;;18.50;70.00;;;;;;11961599;28;20049;-84
2021/03/31 21:58:16;;;;;;;15.25;6.50;;;18.40;70.20;;;;;;11959463;28;20056;-85
2021/03/31 22:04:04;;;;;;;20.95;7.53;;;18.40;70.20;;;;;;11961491;28;20049;-84
2021/03/31 22:09:50;;;;;;;20.15;6.28;;;18.30;70.10;;;;;;11959552;28;20042;-84
2021/03/31 22:15:36;;;;;;;16.42;6.85;;;18.30;70.40;;;;;;11963085;28;20049;-85
2021/03/31 22:21:28;;;;;;;13.30;6.63;;;18.20;70.30;;;;;;11956694;28;20140;-85
2021/03/31 22:27:16;;;;;;;16.98;7.45;;;18.20;70.80;;;;;;11950072;28;20102;-85
2021/03/31 22:33:04;;;;;;;19.10;5.50;;;18.10;70.50;;;;;;11952971;28;20547;-85
2021/03/31 22:38:52;;;;;;;11.85;5.43;;;18.00;70.70;;;;;;11959193;28;20086;-85
2021/03/31 22:44:39;;;;;;;14.73;5.90;;;18.00;70.70;;;;;;11967311;28;20045;-85
2021/03/31 22:50:27;;;;;;;16.33;5.95;;;18.00;71.10;;;;;;11955461;28;20060;-85
2021/03/31 22:56:16;;;;;;;14.88;6.18;;;18.00;71.10;;;;;;11958034;28;21126;-85
2021/03/31 23:02:04;;;;;;;13.63;5.65;;;17.90;71.10;;;;;;11941935;28;20057;-77
2021/03/31 23:07:53;;;;;;;8.18;5.53;;;17.80;71.50;;;;;;11943849;28;20489;-77
2021/03/31 23:13:40;;;;;;;18.92;5.82;;;17.80;71.90;;;;;;11945222;28;20058;-77
2021/03/31 23:19:29;;;;;;;14.30;6.10;;;17.70;72.30;;;;;;11936598;28;20156;-77
2021/03/31 23:25:17;;;;;;;15.25;6.00;;;17.60;72.30;;;;;;11932697;28;20141;-85
2021/03/31 23:31:04;;;;;;;16.65;5.75;;;17.60;72.50;;;;;;11943539;28;20050;-85
2021/03/31 23:36:51;;;;;;;16.95;6.70;;;17.50;72.30;;;;;;11939949;28;20087;-77
2021/03/31 23:42:38;;;;;;;14.13;6.22;;;17.40;72.90;;;;;;11933349;28;20053;-76
2021/03/31 23:48:27;;;;;;;26.23;8.27;;;17.40;73.00;;;;;;11930807;28;20053;-77
2021/03/31 23:54:14;;;;;;;24.05;7.90;;;17.40;73.30;;;;;;11933001;28;20037;-77
